sensor_id;sensor_type;location;lat;lon;timestamp;P1;durP1;ratioP1;P2;durP2;ratioP2
56297;SDS011;42208;6.376;-10.782;2023-04-07T00:02:13;397.42;;;141.55;;
56297;SDS011;42208;6.376;-10.782;2023-04-07T00:04:41;265.02;;;90.07;;
56297;SDS011;42208;6.376;-10.782;2023-04-07T00:07:10;177.05;;;56.65;;
56297;SDS011;42208;6.376;-10.782;2023-04-07T00:09:38;159.82;;;50.35;;
56297;SDS011;42208;6.376;-10.782;2023-04-07T00:12:06;179.52;;;56.78;;
56297;SDS011;42208;6.376;-10.782;2023-04-07T00:14:34;131.13;;;40.58;;
56297;SDS011;42208;6.376;-10.782;2023-04-07T00:17:02;155.40;;;39.13;;
56297;SDS011;42208;6.376;-10.782;2023-04-07T00:19:31;151.13;;;42.28;;
56297;SDS011;42208;6.376;-10.782;2023-04-07T00:21:59;141.05;;;36.67;;
56297;SDS011;42208;6.376;-10.782;2023-04-07T00:24:27;125.97;;;34.15;;
56297;SDS011;42208;6.376;-10.782;2023-04-07T00:27:00;112.55;;;31.63;;
56297;SDS011;42208;6.376;-10.782;2023-04-07T00:29:29;119.82;;;31.75;;
56297;SDS011;42208;6.376;-10.782;2023-04-07T00:31:57;120.60;;;32.35;;
56297;SDS011;42208;6.376;-10.782;2023-04-07T00:34:25;103.05;;;30.85;;
56297;SDS011;42208;6.376;-10.782;2023-04-07T00:36:53;120.68;;;33.22;;
56297;SDS011;42208;6.376;-10.782;2023-04-07T00:39:22;140.45;;;40.42;;
56297;SDS011;42208;6.376;-10.782;2023-04-07T00:41:50;182.23;;;56.03;;
56297;SDS011;42208;6.376;-10.782;2023-04-07T00:44:18;248.07;;;90.10;;
56297;SDS011;42208;6.376;-10.782;2023-04-07T00:46:46;332.95;;;122.10;;
56297;SDS011;42208;6.376;-10.782;2023-04-07T00:49:15;306.83;;;114.50;;
56297;SDS011;42208;6.376;-10.782;2023-04-07T00:51:43;274.83;;;99.03;;
56297;SDS011;42208;6.376;-10.782;2023-04-07T00:54:13;268.42;;;95.55;;
56297;SDS011;42208;6.376;-10.782;2023-04-07T00:56:41;255.90;;;94.05;;
56297;SDS011;42208;6.376;-10.782;2023-04-07T00:59:10;218.55;;;81.60;;
56297;SDS011;42208;6.376;-10.782;2023-04-07T01:01:50;203.82;;;70.88;;
56297;SDS011;42208;6.376;-10.782;2023-04-07T01:07:04;145.15;;;46.80;;
56297;SDS011;42208;6.376;-10.782;2023-04-07T01:09:46;130.85;;;41.85;;
56297;SDS011;42208;6.376;-10.782;2023-04-07T01:15:36;114.63;;;35.55;;
56297;SDS011;42208;6.376;-10.782;2023-04-07T01:18:11;108.40;;;36.40;;
56297;SDS011;42208;6.376;-10.782;2023-04-07T01:20:44;121.43;;;36.38;;
56297;SDS011;42208;6.376;-10.782;2023-04-07T01:23:22;138.50;;;42.72;;
56297;SDS011;42208;6.376;-10.782;2023-04-07T01:26:20;130.77;;;41.07;;
56297;SDS011;42208;6.376;-10.782;2023-04-07T01:31:48;121.95;;;37.65;;
56297;SDS011;42208;6.376;-10.782;2023-04-07T01:34:17;124.45;;;36.78;;
56297;SDS011;42208;6.376;-10.782;2023-04-07T01:36:47;109.10;;;31.20;;
56297;SDS011;42208;6.376;-10.782;2023-04-07T01:39:17;117.93;;;32.45;;
56297;SDS011;42208;6.376;-10.782;2023-04-07T01:41:46;102.05;;;29.63;;
56297;SDS011;42208;6.376;-10.782;2023-04-07T01:44:15;106.53;;;32.15;;
56297;SDS011;42208;6.376;-10.782;2023-04-07T01:46:45;114.07;;;33.83;;
56297;SDS011;42208;6.376;-10.782;2023-04-07T01:49:15;130.52;;;33.97;;
56297;SDS011;42208;6.376;-10.782;2023-04-07T01:51:44;117.60;;;34.45;;
56297;SDS011;42208;6.376;-10.782;2023-04-07T01:54:13;109.82;;;30.77;;
56297;SDS011;42208;6.376;-10.782;2023-04-07T01:56:41;122.85;;;31.67;;
56297;SDS011;42208;6.376;-10.782;2023-04-07T01:59:10;100.78;;;30.33;;
56297;SDS011;42208;6.376;-10.782;2023-04-07T02:01:39;97.03;;;28.60;;
56297;SDS011;42208;6.376;-10.782;2023-04-07T02:06:46;89.22;;;26.27;;
56297;SDS011;42208;6.376;-10.782;2023-04-07T02:09:26;77.65;;;26.08;;
56297;SDS011;42208;6.376;-10.782;2023-04-07T02:11:59;91.47;;;26.48;;
56297;SDS011;42208;6.376;-10.782;2023-04-07T02:14:32;100.32;;;25.73;;
56297;SDS011;42208;6.376;-10.782;2023-04-07T02:17:06;94.85;;;25.25;;
56297;SDS011;42208;6.376;-10.782;2023-04-07T02:19:35;87.20;;;25.02;;
56297;SDS011;42208;6.376;-10.782;2023-04-07T02:22:04;94.43;;;24.70;;
56297;SDS011;42208;6.376;-10.782;2023-04-07T02:24:32;63.05;;;21.23;;
56297;SDS011;42208;6.376;-10.782;2023-04-07T02:27:01;74.03;;;22.50;;
56297;SDS011;42208;6.376;-10.782;2023-04-07T02:29:29;71.40;;;22.20;;
56297;SDS011;42208;6.376;-10.782;2023-04-07T02:31:57;62.58;;;18.80;;
56297;SDS011;42208;6.376;-10.782;2023-04-07T02:34:28;64.38;;;19.65;;
56297;SDS011;42208;6.376;-10.782;2023-04-07T02:36:56;57.42;;;18.38;;
56297;SDS011;42208;6.376;-10.782;2023-04-07T02:39:26;49.10;;;17.42;;
56297;SDS011;42208;6.376;-10.782;2023-04-07T02:41:54;69.90;;;18.50;;
56297;SDS011;42208;6.376;-10.782;2023-04-07T02:44:22;72.10;;;18.63;;
56297;SDS011;42208;6.376;-10.782;2023-04-07T02:46:51;67.85;;;18.20;;
56297;SDS011;42208;6.376;-10.782;2023-04-07T02:49:19;71.90;;;17.42;;
56297;SDS011;42208;6.376;-10.782;2023-04-07T02:51:47;67.32;;;16.80;;
56297;SDS011;42208;6.376;-10.782;2023-04-07T02:54:15;77.10;;;19.02;;
56297;SDS011;42208;6.376;-10.782;2023-04-07T02:56:44;74.68;;;19.00;;
56297;SDS011;42208;6.376;-10.782;2023-04-07T02:59:12;78.38;;;17.20;;
56297;SDS011;42208;6.376;-10.782;2023-04-07T03:01:42;80.18;;;18.00;;
56297;SDS011;42208;6.376;-10.782;2023-04-07T03:04:11;65.15;;;18.77;;
56297;SDS011;42208;6.376;-10.782;2023-04-07T03:06:39;73.10;;;16.63;;
56297;SDS011;42208;6.376;-10.782;2023-04-07T03:09:12;73.10;;;18.80;;
56297;SDS011;42208;6.376;-10.782;2023-04-07T03:11:40;67.57;;;18.20;;
56297;SDS011;42208;6.376;-10.782;2023-04-07T03:14:09;75.75;;;17.63;;
56297;SDS011;42208;6.376;-10.782;2023-04-07T03:16:48;75.00;;;17.50;;
56297;SDS011;42208;6.376;-10.782;2023-04-07T03:19:16;58.45;;;17.83;;
56297;SDS011;42208;6.376;-10.782;2023-04-07T03:21:47;70.35;;;16.95;;
56297;SDS011;42208;6.376;-10.782;2023-04-07T03:24:16;79.75;;;19.17;;
56297;SDS011;42208;6.376;-10.782;2023-04-07T03:26:45;60.17;;;17.63;;
56297;SDS011;42208;6.376;-10.782;2023-04-07T03:29:34;67.35;;;19.38;;
56297;SDS011;42208;6.376;-10.782;2023-04-07T03:32:05;84.87;;;19.87;;
56297;SDS011;42208;6.376;-10.782;2023-04-07T03:34:33;75.25;;;18.65;;
56297;SDS011;42208;6.376;-10.782;2023-04-07T03:37:01;82.90;;;19.30;;
56297;SDS011;42208;6.376;-10.782;2023-04-07T03:39:34;76.13;;;19.10;;
56297;SDS011;42208;6.376;-10.782;2023-04-07T03:42:09;78.47;;;17.90;;
56297;SDS011;42208;6.376;-10.782;2023-04-07T03:44:37;60.47;;;16.42;;
56297;SDS011;42208;6.376;-10.782;2023-04-07T03:47:05;76.65;;;17.58;;
56297;SDS011;42208;6.376;-10.782;2023-04-07T03:49:35;80.05;;;17.75;;
56297;SDS011;42208;6.376;-10.782;2023-04-07T03:52:04;82.20;;;24.17;;
56297;SDS011;42208;6.376;-10.782;2023-04-07T03:54:33;90.32;;;26.00;;
56297;SDS011;42208;6.376;-10.782;2023-04-07T03:57:02;87.70;;;32.00;;
56297;SDS011;42208;6.376;-10.782;2023-04-07T03:59:34;90.50;;;30.35;;
56297;SDS011;42208;6.376;-10.782;2023-04-07T04:02:03;99.35;;;31.10;;
56297;SDS011;42208;6.376;-10.782;2023-04-07T04:04:32;88.20;;;26.30;;
56297;SDS011;42208;6.376;-10.782;2023-04-07T04:07:00;77.20;;;26.33;;
56297;SDS011;42208;6.376;-10.782;2023-04-07T04:09:40;77.78;;;24.40;;
56297;SDS011;42208;6.376;-10.782;2023-04-07T04:12:09;65.03;;;22.23;;
56297;SDS011;42208;6.376;-10.782;2023-04-07T04:14:45;64.68;;;20.77;;
56297;SDS011;42208;6.376;-10.782;2023-04-07T04:17:15;72.03;;;19.02;;
56297;SDS011;42208;6.376;-10.782;2023-04-07T04:19:45;64.85;;;18.45;;
56297;SDS011;42208;6.376;-10.782;2023-04-07T04:22:39;69.57;;;16.98;;
56297;SDS011;42208;6.376;-10.782;2023-04-07T04:25:08;80.47;;;19.55;;
56297;SDS011;42208;6.376;-10.782;2023-04-07T04:27:38;60.50;;;18.70;;
56297;SDS011;42208;6.376;-10.782;2023-04-07T04:30:15;75.63;;;18.38;;
56297;SDS011;42208;6.376;-10.782;2023-04-07T04:32:57;61.65;;;17.10;;
56297;SDS011;42208;6.376;-10.782;2023-04-07T04:35:35;59.05;;;17.98;;
56297;SDS011;42208;6.376;-10.782;2023-04-07T04:38:13;59.97;;;19.27;;
56297;SDS011;42208;6.376;-10.782;2023-04-07T04:40:49;72.28;;;19.85;;
56297;SDS011;42208;6.376;-10.782;2023-04-07T04:43:23;70.25;;;17.80;;
56297;SDS011;42208;6.376;-10.782;2023-04-07T04:45:51;55.00;;;18.00;;
56297;SDS011;42208;6.376;-10.782;2023-04-07T04:48:23;73.60;;;18.17;;
56297;SDS011;42208;6.376;-10.782;2023-04-07T04:50:51;57.28;;;16.55;;
56297;SDS011;42208;6.376;-10.782;2023-04-07T04:53:20;57.95;;;16.58;;
56297;SDS011;42208;6.376;-10.782;2023-04-07T04:55:56;53.67;;;15.90;;
56297;SDS011;42208;6.376;-10.782;2023-04-07T04:58:53;55.90;;;16.08;;
56297;SDS011;42208;6.376;-10.782;2023-04-07T05:01:50;60.78;;;18.30;;
56297;SDS011;42208;6.376;-10.782;2023-04-07T05:04:19;60.75;;;17.27;;
56297;SDS011;42208;6.376;-10.782;2023-04-07T05:06:57;71.82;;;17.38;;
56297;SDS011;42208;6.376;-10.782;2023-04-07T05:09:28;57.20;;;17.95;;
56297;SDS011;42208;6.376;-10.782;2023-04-07T05:11:56;57.30;;;15.35;;
56297;SDS011;42208;6.376;-10.782;2023-04-07T05:14:26;57.42;;;18.25;;
56297;SDS011;42208;6.376;-10.782;2023-04-07T05:17:03;54.15;;;16.38;;
56297;SDS011;42208;6.376;-10.782;2023-04-07T05:19:31;61.65;;;15.73;;
56297;SDS011;42208;6.376;-10.782;2023-04-07T05:22:06;66.57;;;17.00;;
56297;SDS011;42208;6.376;-10.782;2023-04-07T05:24:42;54.35;;;16.85;;
56297;SDS011;42208;6.376;-10.782;2023-04-07T05:27:10;73.78;;;19.25;;
56297;SDS011;42208;6.376;-10.782;2023-04-07T05:29:40;61.53;;;16.83;;
56297;SDS011;42208;6.376;-10.782;2023-04-07T05:32:18;67.57;;;17.98;;
56297;SDS011;42208;6.376;-10.782;2023-04-07T05:34:47;60.92;;;17.90;;
56297;SDS011;42208;6.376;-10.782;2023-04-07T05:37:16;69.65;;;19.42;;
56297;SDS011;42208;6.376;-10.782;2023-04-07T05:39:46;68.65;;;18.45;;
56297;SDS011;42208;6.376;-10.782;2023-04-07T05:42:14;57.88;;;17.52;;
56297;SDS011;42208;6.376;-10.782;2023-04-07T05:44:47;60.55;;;16.77;;
56297;SDS011;42208;6.376;-10.782;2023-04-07T05:47:19;56.00;;;15.95;;
56297;SDS011;42208;6.376;-10.782;2023-04-07T05:49:48;60.45;;;17.27;;
56297;SDS011;42208;6.376;-10.782;2023-04-07T05:52:17;56.17;;;16.77;;
56297;SDS011;42208;6.376;-10.782;2023-04-07T05:54:52;61.30;;;17.88;;
56297;SDS011;42208;6.376;-10.782;2023-04-07T05:59:52;59.17;;;15.35;;
56297;SDS011;42208;6.376;-10.782;2023-04-07T06:02:21;59.08;;;18.00;;
56297;SDS011;42208;6.376;-10.782;2023-04-07T06:04:50;62.10;;;16.52;;
56297;SDS011;42208;6.376;-10.782;2023-04-07T06:07:19;59.85;;;16.50;;
56297;SDS011;42208;6.376;-10.782;2023-04-07T06:09:48;67.88;;;17.58;;
56297;SDS011;42208;6.376;-10.782;2023-04-07T06:12:16;58.92;;;16.98;;
56297;SDS011;42208;6.376;-10.782;2023-04-07T06:14:45;63.15;;;17.48;;
56297;SDS011;42208;6.376;-10.782;2023-04-07T06:17:20;57.50;;;17.05;;
56297;SDS011;42208;6.376;-10.782;2023-04-07T06:19:49;63.10;;;16.45;;
56297;SDS011;42208;6.376;-10.782;2023-04-07T06:22:18;67.68;;;18.95;;
56297;SDS011;42208;6.376;-10.782;2023-04-07T06:24:46;66.60;;;19.15;;
56297;SDS011;42208;6.376;-10.782;2023-04-07T06:27:14;71.10;;;20.30;;
56297;SDS011;42208;6.376;-10.782;2023-04-07T06:29:46;72.53;;;18.33;;
56297;SDS011;42208;6.376;-10.782;2023-04-07T06:32:14;70.82;;;19.33;;
56297;SDS011;42208;6.376;-10.782;2023-04-07T06:34:42;98.60;;;30.85;;
56297;SDS011;42208;6.376;-10.782;2023-04-07T06:37:11;101.85;;;26.23;;
56297;SDS011;42208;6.376;-10.782;2023-04-07T06:39:39;74.45;;;22.45;;
56297;SDS011;42208;6.376;-10.782;2023-04-07T06:42:07;86.25;;;21.30;;
56297;SDS011;42208;6.376;-10.782;2023-04-07T06:44:47;74.38;;;19.92;;
56297;SDS011;42208;6.376;-10.782;2023-04-07T06:47:15;72.20;;;19.45;;
56297;SDS011;42208;6.376;-10.782;2023-04-07T06:49:43;89.40;;;23.05;;
56297;SDS011;42208;6.376;-10.782;2023-04-07T06:52:11;79.82;;;22.10;;
56297;SDS011;42208;6.376;-10.782;2023-04-07T06:54:40;75.45;;;20.25;;
56297;SDS011;42208;6.376;-10.782;2023-04-07T06:57:08;78.22;;;20.77;;
56297;SDS011;42208;6.376;-10.782;2023-04-07T06:59:39;92.97;;;26.35;;
56297;SDS011;42208;6.376;-10.782;2023-04-07T07:02:07;111.53;;;33.13;;
56297;SDS011;42208;6.376;-10.782;2023-04-07T07:04:36;123.85;;;30.63;;
56297;SDS011;42208;6.376;-10.782;2023-04-07T07:07:04;102.10;;;27.35;;
56297;SDS011;42208;6.376;-10.782;2023-04-07T07:09:32;92.60;;;27.33;;
56297;SDS011;42208;6.376;-10.782;2023-04-07T07:12:01;101.18;;;26.35;;
56297;SDS011;42208;6.376;-10.782;2023-04-07T07:14:30;93.07;;;23.40;;
56297;SDS011;42208;6.376;-10.782;2023-04-07T07:16:58;101.47;;;24.98;;
56297;SDS011;42208;6.376;-10.782;2023-04-07T07:19:26;89.22;;;21.27;;
56297;SDS011;42208;6.376;-10.782;2023-04-07T07:21:54;114.25;;;32.15;;
56297;SDS011;42208;6.376;-10.782;2023-04-07T07:24:23;115.40;;;23.42;;
56297;SDS011;42208;6.376;-10.782;2023-04-07T07:26:51;114.70;;;35.60;;
56297;SDS011;42208;6.376;-10.782;2023-04-07T07:42:39;81.30;;;22.03;;
56297;SDS011;42208;6.376;-10.782;2023-04-07T07:45:07;110.00;;;26.30;;
56297;SDS011;42208;6.376;-10.782;2023-04-07T07:47:36;138.45;;;29.77;;
56297;SDS011;42208;6.376;-10.782;2023-04-07T07:50:04;131.20;;;31.75;;
56297;SDS011;42208;6.376;-10.782;2023-04-07T07:52:33;130.80;;;36.55;;
56297;SDS011;42208;6.376;-10.782;2023-04-07T07:55:01;99.28;;;26.55;;
56297;SDS011;42208;6.376;-10.782;2023-04-07T07:57:30;87.15;;;23.42;;
56297;SDS011;42208;6.376;-10.782;2023-04-07T07:59:58;97.43;;;26.67;;
56297;SDS011;42208;6.376;-10.782;2023-04-07T08:02:26;98.25;;;27.55;;
56297;SDS011;42208;6.376;-10.782;2023-04-07T08:04:58;106.45;;;24.90;;
56297;SDS011;42208;6.376;-10.782;2023-04-07T08:07:27;115.15;;;31.95;;
56297;SDS011;42208;6.376;-10.782;2023-04-07T08:09:55;92.47;;;25.30;;
56297;SDS011;42208;6.376;-10.782;2023-04-07T08:12:24;105.03;;;35.17;;
56297;SDS011;42208;6.376;-10.782;2023-04-07T08:14:52;116.43;;;35.53;;
56297;SDS011;42208;6.376;-10.782;2023-04-07T08:17:20;100.72;;;27.38;;
56297;SDS011;42208;6.376;-10.782;2023-04-07T08:19:50;106.97;;;32.10;;
56297;SDS011;42208;6.376;-10.782;2023-04-07T08:22:18;112.25;;;35.95;;
56297;SDS011;42208;6.376;-10.782;2023-04-07T08:24:46;113.60;;;30.83;;
56297;SDS011;42208;6.376;-10.782;2023-04-07T08:27:15;106.43;;;28.85;;
56297;SDS011;42208;6.376;-10.782;2023-04-07T08:29:43;123.30;;;31.92;;
56297;SDS011;42208;6.376;-10.782;2023-04-07T08:32:11;104.38;;;21.40;;
56297;SDS011;42208;6.376;-10.782;2023-04-07T08:34:39;103.97;;;23.10;;
56297;SDS011;42208;6.376;-10.782;2023-04-07T08:37:08;92.05;;;21.13;;
56297;SDS011;42208;6.376;-10.782;2023-04-07T08:39:36;108.10;;;25.88;;
56297;SDS011;42208;6.376;-10.782;2023-04-07T08:42:05;84.80;;;21.00;;
56297;SDS011;42208;6.376;-10.782;2023-04-07T08:44:35;82.40;;;18.27;;
56297;SDS011;42208;6.376;-10.782;2023-04-07T08:47:04;78.93;;;17.63;;
56297;SDS011;42208;6.376;-10.782;2023-04-07T08:49:35;110.03;;;28.60;;
56297;SDS011;42208;6.376;-10.782;2023-04-07T08:52:07;94.57;;;19.63;;
56297;SDS011;42208;6.376;-10.782;2023-04-07T08:54:37;204.93;;;80.18;;
56297;SDS011;42208;6.376;-10.782;2023-04-07T08:57:06;110.00;;;29.80;;
56297;SDS011;42208;6.376;-10.782;2023-04-07T08:59:35;109.50;;;31.88;;
56297;SDS011;42208;6.376;-10.782;2023-04-07T09:02:03;83.22;;;22.23;;
56297;SDS011;42208;6.376;-10.782;2023-04-07T09:04:32;85.15;;;22.70;;
56297;SDS011;42208;6.376;-10.782;2023-04-07T09:07:00;82.20;;;19.77;;
56297;SDS011;42208;6.376;-10.782;2023-04-07T09:09:29;88.28;;;26.25;;
56297;SDS011;42208;6.376;-10.782;2023-04-07T09:11:57;225.25;;;83.35;;
56297;SDS011;42208;6.376;-10.782;2023-04-07T09:14:25;184.80;;;70.85;;
56297;SDS011;42208;6.376;-10.782;2023-04-07T09:16:54;140.88;;;53.60;;
56297;SDS011;42208;6.376;-10.782;2023-04-07T09:19:23;76.05;;;24.30;;
56297;SDS011;42208;6.376;-10.782;2023-04-07T09:21:53;67.80;;;18.67;;
56297;SDS011;42208;6.376;-10.782;2023-04-07T09:24:28;88.55;;;17.48;;
56297;SDS011;42208;6.376;-10.782;2023-04-07T09:27:13;76.05;;;18.35;;
56297;SDS011;42208;6.376;-10.782;2023-04-07T09:29:44;77.15;;;19.88;;
56297;SDS011;42208;6.376;-10.782;2023-04-07T09:35:04;60.40;;;17.85;;
56297;SDS011;42208;6.376;-10.782;2023-04-07T09:37:32;77.85;;;18.80;;
56297;SDS011;42208;6.376;-10.782;2023-04-07T09:40:00;79.80;;;20.35;;
56297;SDS011;42208;6.376;-10.782;2023-04-07T09:42:29;73.70;;;18.63;;
56297;SDS011;42208;6.376;-10.782;2023-04-07T09:45:01;74.07;;;19.83;;
56297;SDS011;42208;6.376;-10.782;2023-04-07T09:47:30;80.55;;;21.10;;
56297;SDS011;42208;6.376;-10.782;2023-04-07T09:49:59;71.43;;;18.52;;
56297;SDS011;42208;6.376;-10.782;2023-04-07T09:55:19;84.15;;;19.83;;
56297;SDS011;42208;6.376;-10.782;2023-04-07T09:57:52;75.13;;;17.05;;
56297;SDS011;42208;6.376;-10.782;2023-04-07T10:00:21;78.20;;;17.13;;
56297;SDS011;42208;6.376;-10.782;2023-04-07T10:02:49;73.85;;;16.60;;
56297;SDS011;42208;6.376;-10.782;2023-04-07T10:05:19;77.65;;;19.52;;
56297;SDS011;42208;6.376;-10.782;2023-04-07T10:07:49;60.78;;;16.55;;
56297;SDS011;42208;6.376;-10.782;2023-04-07T10:10:17;52.58;;;12.77;;
56297;SDS011;42208;6.376;-10.782;2023-04-07T10:12:46;62.95;;;15.95;;
56297;SDS011;42208;6.376;-10.782;2023-04-07T10:15:16;54.17;;;12.23;;
56297;SDS011;42208;6.376;-10.782;2023-04-07T10:17:45;69.45;;;12.50;;
56297;SDS011;42208;6.376;-10.782;2023-04-07T10:20:17;47.30;;;10.38;;
56297;SDS011;42208;6.376;-10.782;2023-04-07T10:25:16;59.80;;;13.40;;
56297;SDS011;42208;6.376;-10.782;2023-04-07T10:27:49;56.55;;;9.85;;
56297;SDS011;42208;6.376;-10.782;2023-04-07T10:30:30;59.28;;;12.70;;
56297;SDS011;42208;6.376;-10.782;2023-04-07T10:32:59;45.95;;;8.50;;
56297;SDS011;42208;6.376;-10.782;2023-04-07T10:44:03;41.17;;;8.20;;
56297;SDS011;42208;6.376;-10.782;2023-04-07T10:49:13;46.10;;;8.68;;
56297;SDS011;42208;6.376;-10.782;2023-04-07T10:51:44;53.65;;;9.85;;
56297;SDS011;42208;6.376;-10.782;2023-04-07T10:54:39;43.65;;;9.27;;
56297;SDS011;42208;6.376;-10.782;2023-04-07T10:57:08;41.60;;;7.80;;
56297;SDS011;42208;6.376;-10.782;2023-04-07T10:59:38;40.08;;;9.88;;
56297;SDS011;42208;6.376;-10.782;2023-04-07T11:05:00;43.70;;;9.00;;
56297;SDS011;42208;6.376;-10.782;2023-04-07T11:07:42;121.95;;;51.00;;
56297;SDS011;42208;6.376;-10.782;2023-04-07T11:10:14;57.40;;;12.93;;
56297;SDS011;42208;6.376;-10.782;2023-04-07T11:12:43;58.72;;;10.15;;
56297;SDS011;42208;6.376;-10.782;2023-04-07T11:15:24;56.13;;;8.88;;
56297;SDS011;42208;6.376;-10.782;2023-04-07T11:20:47;51.17;;;9.13;;
56297;SDS011;42208;6.376;-10.782;2023-04-07T11:23:16;42.38;;;8.70;;
56297;SDS011;42208;6.376;-10.782;2023-04-07T11:25:46;38.85;;;8.82;;
56297;SDS011;42208;6.376;-10.782;2023-04-07T11:28:16;41.78;;;6.78;;
56297;SDS011;42208;6.376;-10.782;2023-04-07T11:30:48;55.13;;;10.05;;
56297;SDS011;42208;6.376;-10.782;2023-04-07T11:33:19;58.88;;;10.45;;
56297;SDS011;42208;6.376;-10.782;2023-04-07T11:36:00;50.17;;;8.50;;
56297;SDS011;42208;6.376;-10.782;2023-04-07T11:38:34;41.28;;;8.50;;
56297;SDS011;42208;6.376;-10.782;2023-04-07T11:41:10;49.25;;;7.70;;
56297;SDS011;42208;6.376;-10.782;2023-04-07T11:43:40;34.90;;;8.63;;
56297;SDS011;42208;6.376;-10.782;2023-04-07T11:46:15;54.22;;;8.55;;
56297;SDS011;42208;6.376;-10.782;2023-04-07T11:48:45;38.10;;;8.07;;
56297;SDS011;42208;6.376;-10.782;2023-04-07T11:51:17;49.25;;;7.80;;
56297;SDS011;42208;6.376;-10.782;2023-04-07T11:53:46;46.85;;;8.52;;
56297;SDS011;42208;6.376;-10.782;2023-04-07T11:56:20;43.38;;;7.43;;
56297;SDS011;42208;6.376;-10.782;2023-04-07T11:58:49;51.70;;;9.23;;
56297;SDS011;42208;6.376;-10.782;2023-04-07T12:01:21;55.65;;;10.48;;
56297;SDS011;42208;6.376;-10.782;2023-04-07T12:03:57;47.53;;;8.75;;
56297;SDS011;42208;6.376;-10.782;2023-04-07T12:06:30;35.22;;;7.22;;
56297;SDS011;42208;6.376;-10.782;2023-04-07T12:09:00;39.95;;;7.15;;
56297;SDS011;42208;6.376;-10.782;2023-04-07T12:11:29;49.90;;;8.23;;
56297;SDS011;42208;6.376;-10.782;2023-04-07T12:13:58;37.13;;;6.10;;
56297;SDS011;42208;6.376;-10.782;2023-04-07T12:16:26;41.67;;;10.48;;
56297;SDS011;42208;6.376;-10.782;2023-04-07T12:18:54;42.40;;;7.88;;
56297;SDS011;42208;6.376;-10.782;2023-04-07T12:21:23;45.85;;;9.57;;
56297;SDS011;42208;6.376;-10.782;2023-04-07T12:23:51;49.90;;;12.05;;
56297;SDS011;42208;6.376;-10.782;2023-04-07T12:26:19;52.47;;;11.25;;
56297;SDS011;42208;6.376;-10.782;2023-04-07T12:28:49;41.90;;;9.77;;
56297;SDS011;42208;6.376;-10.782;2023-04-07T12:31:17;52.38;;;10.35;;
56297;SDS011;42208;6.376;-10.782;2023-04-07T12:33:45;50.38;;;11.15;;
56297;SDS011;42208;6.376;-10.782;2023-04-07T12:36:14;55.95;;;10.57;;
56297;SDS011;42208;6.376;-10.782;2023-04-07T12:38:43;54.45;;;10.35;;
56297;SDS011;42208;6.376;-10.782;2023-04-07T12:41:11;34.65;;;6.80;;
56297;SDS011;42208;6.376;-10.782;2023-04-07T12:43:39;36.55;;;7.35;;
56297;SDS011;42208;6.376;-10.782;2023-04-07T12:46:07;46.20;;;7.75;;
56297;SDS011;42208;6.376;-10.782;2023-04-07T12:48:36;32.67;;;8.35;;
56297;SDS011;42208;6.376;-10.782;2023-04-07T12:51:04;47.65;;;9.07;;
56297;SDS011;42208;6.376;-10.782;2023-04-07T12:53:33;58.88;;;9.95;;
56297;SDS011;42208;6.376;-10.782;2023-04-07T12:56:01;50.95;;;10.55;;
56297;SDS011;42208;6.376;-10.782;2023-04-07T12:58:29;71.60;;;10.07;;
56297;SDS011;42208;6.376;-10.782;2023-04-07T13:00:58;43.13;;;11.07;;
56297;SDS011;42208;6.376;-10.782;2023-04-07T13:03:26;41.17;;;10.20;;
56297;SDS011;42208;6.376;-10.782;2023-04-07T13:05:55;48.28;;;9.30;;
56297;SDS011;42208;6.376;-10.782;2023-04-07T13:08:23;47.33;;;9.95;;
56297;SDS011;42208;6.376;-10.782;2023-04-07T13:10:52;65.85;;;13.13;;
56297;SDS011;42208;6.376;-10.782;2023-04-07T13:13:21;48.00;;;10.35;;
56297;SDS011;42208;6.376;-10.782;2023-04-07T13:15:50;30.63;;;7.60;;
56297;SDS011;42208;6.376;-10.782;2023-04-07T13:18:18;48.67;;;9.63;;
56297;SDS011;42208;6.376;-10.782;2023-04-07T13:20:46;43.95;;;9.75;;
56297;SDS011;42208;6.376;-10.782;2023-04-07T13:23:35;51.53;;;10.98;;
56297;SDS011;42208;6.376;-10.782;2023-04-07T13:26:09;49.15;;;8.77;;
56297;SDS011;42208;6.376;-10.782;2023-04-07T13:28:38;37.13;;;7.95;;
56297;SDS011;42208;6.376;-10.782;2023-04-07T13:31:06;35.90;;;9.35;;
56297;SDS011;42208;6.376;-10.782;2023-04-07T13:33:34;40.92;;;9.90;;
56297;SDS011;42208;6.376;-10.782;2023-04-07T13:36:02;41.40;;;10.25;;
56297;SDS011;42208;6.376;-10.782;2023-04-07T13:38:31;43.42;;;8.45;;
56297;SDS011;42208;6.376;-10.782;2023-04-07T13:40:59;53.10;;;9.77;;
56297;SDS011;42208;6.376;-10.782;2023-04-07T13:43:29;45.22;;;9.77;;
56297;SDS011;42208;6.376;-10.782;2023-04-07T13:45:59;59.72;;;10.82;;
56297;SDS011;42208;6.376;-10.782;2023-04-07T13:48:27;42.75;;;10.20;;
56297;SDS011;42208;6.376;-10.782;2023-04-07T13:50:55;39.08;;;8.85;;
56297;SDS011;42208;6.376;-10.782;2023-04-07T13:53:23;54.03;;;10.90;;
56297;SDS011;42208;6.376;-10.782;2023-04-07T13:55:51;43.58;;;7.85;;
56297;SDS011;42208;6.376;-10.782;2023-04-07T13:58:20;41.45;;;9.73;;
56297;SDS011;42208;6.376;-10.782;2023-04-07T14:00:48;36.05;;;7.50;;
56297;SDS011;42208;6.376;-10.782;2023-04-07T14:03:16;37.97;;;7.38;;
56297;SDS011;42208;6.376;-10.782;2023-04-07T14:05:44;46.30;;;9.02;;
56297;SDS011;42208;6.376;-10.782;2023-04-07T14:08:13;54.70;;;10.15;;
56297;SDS011;42208;6.376;-10.782;2023-04-07T14:10:41;44.30;;;9.05;;
56297;SDS011;42208;6.376;-10.782;2023-04-07T14:13:09;46.22;;;8.05;;
56297;SDS011;42208;6.376;-10.782;2023-04-07T14:15:37;50.67;;;7.63;;
56297;SDS011;42208;6.376;-10.782;2023-04-07T14:18:07;39.35;;;8.52;;
56297;SDS011;42208;6.376;-10.782;2023-04-07T14:20:35;42.25;;;9.57;;
56297;SDS011;42208;6.376;-10.782;2023-04-07T14:23:04;50.40;;;10.13;;
56297;SDS011;42208;6.376;-10.782;2023-04-07T14:25:32;47.78;;;10.57;;
56297;SDS011;42208;6.376;-10.782;2023-04-07T14:28:00;51.50;;;11.40;;
56297;SDS011;42208;6.376;-10.782;2023-04-07T14:30:29;46.00;;;10.65;;
56297;SDS011;42208;6.376;-10.782;2023-04-07T14:32:57;45.92;;;8.65;;
56297;SDS011;42208;6.376;-10.782;2023-04-07T14:35:25;47.17;;;8.95;;
56297;SDS011;42208;6.376;-10.782;2023-04-07T14:37:54;51.15;;;9.60;;
56297;SDS011;42208;6.376;-10.782;2023-04-07T14:40:22;44.97;;;8.05;;
56297;SDS011;42208;6.376;-10.782;2023-04-07T14:42:50;41.83;;;8.30;;
56297;SDS011;42208;6.376;-10.782;2023-04-07T14:45:33;59.80;;;9.48;;
56297;SDS011;42208;6.376;-10.782;2023-04-07T14:48:01;49.67;;;8.80;;
56297;SDS011;42208;6.376;-10.782;2023-04-07T14:50:33;52.25;;;11.90;;
56297;SDS011;42208;6.376;-10.782;2023-04-07T14:53:02;41.00;;;9.63;;
56297;SDS011;42208;6.376;-10.782;2023-04-07T14:55:30;35.47;;;9.75;;
56297;SDS011;42208;6.376;-10.782;2023-04-07T14:57:58;44.97;;;8.98;;
56297;SDS011;42208;6.376;-10.782;2023-04-07T15:00:27;53.22;;;10.55;;
56297;SDS011;42208;6.376;-10.782;2023-04-07T15:02:55;50.03;;;10.40;;
56297;SDS011;42208;6.376;-10.782;2023-04-07T15:05:23;50.72;;;8.38;;
56297;SDS011;42208;6.376;-10.782;2023-04-07T15:07:52;43.47;;;9.98;;
56297;SDS011;42208;6.376;-10.782;2023-04-07T15:10:20;60.38;;;11.02;;
56297;SDS011;42208;6.376;-10.782;2023-04-07T15:12:49;34.35;;;8.55;;
56297;SDS011;42208;6.376;-10.782;2023-04-07T15:15:17;61.00;;;13.23;;
56297;SDS011;42208;6.376;-10.782;2023-04-07T15:17:45;42.75;;;10.40;;
56297;SDS011;42208;6.376;-10.782;2023-04-07T15:20:14;46.60;;;11.88;;